Aérodrome :
LOGIN :

S'inscrire | Disclaimer

   EN    FR    IT 

 










Légende :    VFR   VFR Marginal   IFR   IFR Intensif   IFR Très Intensif
Visi : 
Plafond : 
>= 8 km
>= 3000ft
5 à 8 km
1000 à 3000 ft
1500m à 5 km
500 à 1000 ft
800 à 1500m
200 à 500 ft
< 800m
< 200 ft
Symboles :   Orages  Brouillard  Fortes neiges  Fortes précipitations  Vent > 20 kt
SIGMETs :   Divers  Orages  Givrage  Turbulence  Onde Orograph.  Cendres Volcan.






- Altitude de l'aérodrome : 17 ft
- Code IATA : GRQ


EHGG - Groningen Eelde

DERNIER METAR :
  • 220855Z AUTO 25009KT 210V280 9999 BKN016/// OVC020/// 18/14 Q1010 NOSIG

METARs EXPIRÉS :
  • 220825Z AUTO 24010KT 210V270 9999 SCT014/// OVC016/// 17/14 Q1010 NOSIG
  • 220755Z AUTO 24008KT 210V280 9999 BKN011 BKN013 OVC017 17/14 Q1010 BECMG BKN020
  • 220725Z AUTO 24008KT 200V270 9999 SCT011 OVC014 17/14 Q1009 BECMG SCT015
  • 220655Z AUTO 23008KT 190V270 9000 SCT009/// BKN010/// 17/15 Q1009 BECMG SCT014
  • 220625Z AUTO 23008KT 200V260 7000 FEW008 SCT009 16/14 Q1009 BECMG 9999 TEMPO BKN011
  • 220555Z AUTO 22007KT 5000 FEW007 SCT008 BKN010 16/14 Q1009 BECMG 9999 NSW TEMPO NSC
  • 220525Z AUTO 21004KT 170V230 3800 BR FEW005/// SCT006/// 14/13 Q1009 BECMG 9999 NSW TEMPO BKN014
  • 220455Z AUTO 22008KT 3300 BR FEW004/// 14/13 Q1009 TEMPO BKN014
  • 220425Z AUTO 20005KT 3400 BR OVC012/// 13/13 Q1009 NOSIG

TAF TAF EHGG
Valide du 22 à 06h jusqu'au 23 à 12h UTC


220517Z 2206/2312 22007KT 4500 BR SCT040
BECMG 2206/2207 9999 NSW
TEMPO 2206/2208 SCT007 BKN012
BECMG 2207/2210 25012KT
PROB30
TEMPO 2211/2216 7000 -SHRA FEW050TCU
BECMG 2214/2217 28008KT
BECMG 2222/2301 2500 BR MIFG
PROB30 2303/2305 0800 FG BKN003



MET'MAP, la Météo Aéronautique d'un coup d'oeil ! - Copyright ORBIFLY Décembre 2007 - Disclaimer

ORBIFLY MET'MAP TEAM :

Programmation & Développement : Alexandra Zaïnal
Sur une idée originale de : Baudouin d'Aumeries
Soutien technique & logistique : Manuel Goepfert
Assistance : Marc-Olivier Méhu




SOURCES & CREDITS :

   NOAA